Thomson Majesty — 9HA2188 — position and weather

sailwx.info

Track history (hours):
 
Tides and Currents Weather Stations Pressure Air Temp Water Temp Dewpoint Dewpoint Depression Visibility Wind Speed Wind Dir Waves Ship Positions

Thomson Majesty

Last reported at 2014-Aug-20 19:33 UTC. Time now 2014-Aug-20 20:27 UTC.
Position N 37°33' E 023°40'.

Length 207 m; draft 6.2 m.

Type: Ship. MMSI: 248124000.

Date/timePositionNaut miles runAvg speedWind from/ knotsBaromVisibWave heightAir tempDewpointWater temp
2014-Aug-20 19:33N 37°33' E 023°40'1817.6
2014-Aug-20 18:33N 37°50' E 023°37'3 2.6
2014-Aug-20 17:33N 37°49' E 023°40'1818.0
2014-Aug-20 16:33N 37°31' E 023°42'1111.0
2014-Aug-20 15:33N 37°42' E 023°41'1313.4
2014-Aug-20 14:33N 37°55' E 023°36'2 1.6
2014-Aug-20 13:32N 37°56' E 023°38'0 0.0
2014-Aug-20 12:32N 37°56' E 023°38'0 0.0
2014-Aug-20 11:32N 37°56' E 023°38'0 0.0
2014-Aug-20 10:32N 37°56' E 023°38'0 0.0
2014-Aug-20 09:32N 37°56' E 023°38'0 0.0
2014-Aug-20 08:32N 37°56' E 023°38'0 0.0
2014-Aug-20 07:32N 37°56' E 023°38'0 0.0
2014-Aug-20 06:32N 37°56' E 023°38'0 0.0
2014-Aug-20 05:32N 37°56' E 023°38'0 0.0
2014-Aug-20 04:32N 37°56' E 023°38'0 0.3
2014-Aug-20 03:33N 37°56' E 023°38'6 5.9
2014-Aug-20 02:33N 37°51' E 023°39'1717.5
2014-Aug-20 01:34N 37°37' E 023°54'1918.7
2014-Aug-20 00:33N 37°30' E 024°16'1413.9
2014-Aug-19 23:33N 37°31' E 024°33'1514.6
2014-Aug-19 22:33N 37°33' E 024°51'1414.1
2014-Aug-19 21:33N 37°30' E 025°09'1414.1
2014-Aug-19 20:33N 37°33' E 025°26'1414.2
2014-Aug-19 19:33N 37°37' E 025°43'1414.3
2014-Aug-19 18:33N 37°41' E 026°01'1414.1
2014-Aug-19 17:33N 37°45' E 026°18'1514.1
2014-Aug-19 16:28N 37°49' E 026°36'10 0.6
2014-Aug-19 00:14N 37°44' E 026°25'1012.0
2014-Aug-18 23:26N 37°38' E 026°35'1112.4
2014-Aug-18 22:33N 37°29' E 026°43'111 3.9
2014-Aug-17 18:33N 35°43' E 026°02'1414.1
2014-Aug-17 17:33N 35°31' E 025°54'1414.2
2014-Aug-17 16:33N 35°18' E 025°48'1 0.0
2014-Aug-17 03:33N 35°17' E 025°49'1313.2
2014-Aug-17 02:33N 35°30' E 025°43'1413.7
2014-Aug-17 01:33N 35°31' E 025°27'1414.2
2014-Aug-17 00:33N 35°33' E 025°10'1414.1
2014-Aug-16 23:33N 35°37' E 024°53'1413.6
2014-Aug-16 22:33N 35°41' E 024°37'1413.6
2014-Aug-16 21:33N 35°44' E 024°21'1414.4
2014-Aug-16 20:33N 35°48' E 024°04'1514.6
2014-Aug-16 19:33N 35°53' E 023°46'1414.0
2014-Aug-16 18:33N 35°56' E 023°30'  
Track history (hours):
 
Tides and Currents Weather Stations Pressure Air Temp Water Temp Dewpoint Dewpoint Depression Visibility Wind Speed Wind Dir Waves Ship Positions

Thomson Majesty

Last reported at 2014-Aug-20 19:33 UTC. Time now 2014-Aug-20 20:27 UTC.
Position N 37°33' E 023°40'.

Length 207 m; draft 6.2 m.

Type: Ship. MMSI: 248124000.

Date/timePositionNaut miles runAvg speedWind from/ knotsBaromVisibWave heightAir tempDewpointWater temp
2014-Aug-20 19:33N 37°33' E 023°40'1817.6
2014-Aug-20 18:33N 37°50' E 023°37'3 2.6
2014-Aug-20 17:33N 37°49' E 023°40'1818.0
2014-Aug-20 16:33N 37°31' E 023°42'1111.0
2014-Aug-20 15:33N 37°42' E 023°41'1313.4
2014-Aug-20 14:33N 37°55' E 023°36'2 1.6
2014-Aug-20 13:32N 37°56' E 023°38'0 0.0
2014-Aug-20 12:32N 37°56' E 023°38'0 0.0
2014-Aug-20 11:32N 37°56' E 023°38'0 0.0
2014-Aug-20 10:32N 37°56' E 023°38'0 0.0
2014-Aug-20 09:32N 37°56' E 023°38'0 0.0
2014-Aug-20 08:32N 37°56' E 023°38'0 0.0
2014-Aug-20 07:32N 37°56' E 023°38'0 0.0
2014-Aug-20 06:32N 37°56' E 023°38'0 0.0
2014-Aug-20 05:32N 37°56' E 023°38'0 0.0
2014-Aug-20 04:32N 37°56' E 023°38'0 0.3
2014-Aug-20 03:33N 37°56' E 023°38'6 5.9
2014-Aug-20 02:33N 37°51' E 023°39'1717.5
2014-Aug-20 01:34N 37°37' E 023°54'1918.7
2014-Aug-20 00:33N 37°30' E 024°16'1413.9
2014-Aug-19 23:33N 37°31' E 024°33'1514.6
2014-Aug-19 22:33N 37°33' E 024°51'1414.1
2014-Aug-19 21:33N 37°30' E 025°09'1414.1
2014-Aug-19 20:33N 37°33' E 025°26'1414.2
2014-Aug-19 19:33N 37°37' E 025°43'1414.3
2014-Aug-19 18:33N 37°41' E 026°01'1414.1
2014-Aug-19 17:33N 37°45' E 026°18'1514.1
2014-Aug-19 16:28N 37°49' E 026°36'10 0.6
2014-Aug-19 00:14N 37°44' E 026°25'1012.0
2014-Aug-18 23:26N 37°38' E 026°35'1112.4
2014-Aug-18 22:33N 37°29' E 026°43'111 3.9
2014-Aug-17 18:33N 35°43' E 026°02'1414.1
2014-Aug-17 17:33N 35°31' E 025°54'1414.2
2014-Aug-17 16:33N 35°18' E 025°48'1 0.0
2014-Aug-17 03:33N 35°17' E 025°49'1313.2
2014-Aug-17 02:33N 35°30' E 025°43'1413.7
2014-Aug-17 01:33N 35°31' E 025°27'1414.2
2014-Aug-17 00:33N 35°33' E 025°10'1414.1
2014-Aug-16 23:33N 35°37' E 024°53'1413.6
2014-Aug-16 22:33N 35°41' E 024°37'1413.6
2014-Aug-16 21:33N 35°44' E 024°21'1414.4
2014-Aug-16 20:33N 35°48' E 024°04'1514.6
2014-Aug-16 19:33N 35°53' E 023°46'1414.0
2014-Aug-16 18:33N 35°56' E 023°30'  

Dump ship's entire track history